createdAt,value
2022-11-10T00:03:08.262Z,22.92
2022-11-10T00:10:10.179Z,22.63
2022-11-10T00:17:12.112Z,24.83
2022-11-10T00:24:13.839Z,25.00
2022-11-10T00:31:15.873Z,23.52
2022-11-10T00:38:17.621Z,23.50
2022-11-10T00:45:19.395Z,24.58
2022-11-10T00:52:21.110Z,23.40
2022-11-10T00:59:22.876Z,24.13
2022-11-10T01:06:24.640Z,23.73
2022-11-10T01:13:26.367Z,23.67
2022-11-10T01:20:28.162Z,22.98
2022-11-10T01:27:30.146Z,23.38
2022-11-10T01:34:32.084Z,23.35
2022-11-10T01:41:33.882Z,22.23
2022-11-10T01:48:44.808Z,24.05
2022-11-10T01:55:47.725Z,23.77
2022-11-10T02:03:01.990Z,24.45
2022-11-10T02:10:04.053Z,23.65
2022-11-10T02:17:05.847Z,25.38
2022-11-10T02:24:08.130Z,23.88
2022-11-10T02:31:10.056Z,23.90
2022-11-10T02:38:11.813Z,24.42
2022-11-10T02:45:13.631Z,23.77
2022-11-10T02:52:15.326Z,24.60
2022-11-10T02:59:17.087Z,24.88
2022-11-10T03:06:18.913Z,25.90
2022-11-10T03:13:20.910Z,25.30
2022-11-10T03:20:23.004Z,25.38
2022-11-10T03:27:24.946Z,24.63
2022-11-10T03:34:30.771Z,26.00
2022-11-10T03:41:33.547Z,23.67
2022-11-10T03:48:35.366Z,25.40
2022-11-10T03:55:37.220Z,24.95
2022-11-10T04:02:39.697Z,25.40
2022-11-10T04:09:41.457Z,26.00
2022-11-10T04:16:43.255Z,25.67
2022-11-10T04:23:45.080Z,23.13
2022-11-10T04:30:46.861Z,25.88
2022-11-10T04:37:48.585Z,26.00
2022-11-10T04:44:50.302Z,25.85
2022-11-10T04:51:52.116Z,25.88
2022-11-10T04:58:54.581Z,25.00
2022-11-10T05:05:56.357Z,26.48
2022-11-10T05:12:58.352Z,26.70
2022-11-10T05:20:00.105Z,29.75
2022-11-10T05:27:02.109Z,24.85
2022-11-10T05:34:03.909Z,26.27
2022-11-10T05:41:05.650Z,25.27
2022-11-10T05:48:07.503Z,26.45
2022-11-10T05:55:09.441Z,27.90
2022-11-10T06:02:11.262Z,25.67
2022-11-10T06:09:12.958Z,25.33
2022-11-10T06:16:14.767Z,26.15
2022-11-10T06:23:16.579Z,26.45
2022-11-10T06:30:18.393Z,27.45
2022-11-10T06:37:20.238Z,26.60
2022-11-10T06:44:22.027Z,23.45
2022-11-10T06:51:23.753Z,26.27
2022-11-10T06:58:30.865Z,25.65
2022-11-10T07:05:34.025Z,25.77
2022-11-10T07:12:35.866Z,25.05
2022-11-10T07:19:37.480Z,27.15
2022-11-10T07:26:39.370Z,26.33
2022-11-10T07:33:41.295Z,24.13
2022-11-10T07:40:42.946Z,29.38
2022-11-10T07:47:44.692Z,25.35
2022-11-10T07:54:46.345Z,28.25
2022-11-10T08:01:48.142Z,23.85
2022-11-10T08:08:49.876Z,22.77
2022-11-10T08:15:51.664Z,22.77
2022-11-10T08:22:59.119Z,27.80
2022-11-10T08:30:00.884Z,23.10
2022-11-10T08:37:02.526Z,20.23
2022-11-10T08:44:07.104Z,27.98
2022-11-10T08:51:12.407Z,25.27
2022-11-10T08:58:18.117Z,23.10
2022-11-10T09:05:19.920Z,28.73
2022-11-10T09:12:21.547Z,25.00
2022-11-10T09:19:30.812Z,21.35
2022-11-10T09:26:34.041Z,25.35
2022-11-10T09:33:35.721Z,18.63
2022-11-10T09:40:48.994Z,23.55
2022-11-10T09:48:09.425Z,22.02
2022-11-10T09:55:23.272Z,28.98
2022-11-10T10:02:25.169Z,22.45
2022-11-10T10:09:48.185Z,28.77
2022-11-10T10:24:31.521Z,28.95
2022-11-10T10:31:41.178Z,23.55
2022-11-10T10:38:44.163Z,24.80
2022-11-10T10:46:02.770Z,25.80
2022-11-10T10:53:14.126Z,29.42
2022-11-10T11:00:20.064Z,23.48
2022-11-10T11:07:25.503Z,28.95
2022-11-10T11:14:28.496Z,26.75
2022-11-10T11:21:44.959Z,24.77
2022-11-10T11:29:05.127Z,25.92
2022-11-10T11:36:13.046Z,20.40
2022-11-10T11:43:33.490Z,24.23
2022-11-10T11:50:50.687Z,13.98
2022-11-10T11:57:52.376Z,22.15
2022-11-10T12:05:27.747Z,19.63
2022-11-10T12:12:32.625Z,20.90
2022-11-10T12:19:39.866Z,21.25
2022-11-10T12:26:41.683Z,19.63
2022-11-10T12:33:49.029Z,18.35
2022-11-10T12:40:53.179Z,17.48
2022-11-10T12:47:55.278Z,15.43
2022-11-10T12:54:57.005Z,15.55
2022-11-10T13:02:03.656Z,17.73
2022-11-10T13:09:05.383Z,14.23
2022-11-10T13:16:08.648Z,15.35
2022-11-10T13:23:29.826Z,12.88
2022-11-10T13:30:45.691Z,15.00
2022-11-10T13:37:50.800Z,15.48
2022-11-10T13:44:54.197Z,11.52
2022-11-10T13:52:07.645Z,12.98
2022-11-10T13:59:16.882Z,13.98
2022-11-10T14:06:22.343Z,11.40
2022-11-10T14:13:27.781Z,15.43
2022-11-10T14:20:34.103Z,13.52
2022-11-10T14:27:38.076Z,13.73
2022-11-10T14:34:47.978Z,13.18
2022-11-10T14:48:56.276Z,12.02
2022-11-10T14:55:59.837Z,10.77
2022-11-10T15:03:02.062Z,13.52
2022-11-10T15:10:20.677Z,10.73
2022-11-10T15:17:43.135Z,11.48
2022-11-10T15:24:45.603Z,11.75
2022-11-10T15:31:47.922Z,12.70
2022-11-10T15:39:01.891Z,11.23
2022-11-10T15:46:16.497Z,15.90
2022-11-10T15:53:40.504Z,12.13
2022-11-10T16:00:42.384Z,8.93
2022-11-10T16:07:44.163Z,9.57
2022-11-10T16:14:47.599Z,8.85
2022-11-10T16:21:50.400Z,9.38
2022-11-10T16:28:52.411Z,10.05
2022-11-10T16:35:55.412Z,9.90
2022-11-10T16:42:57.177Z,9.60
2022-11-10T16:49:58.957Z,8.13
2022-11-10T16:57:02.104Z,14.13
2022-11-10T17:04:08.402Z,10.93
2022-11-10T17:11:10.512Z,8.57
2022-11-10T17:18:17.579Z,8.65
2022-11-10T17:25:29.398Z,8.77
2022-11-10T17:33:02.966Z,5.97
2022-11-10T17:39:56.679Z,8.40
2022-11-10T17:46:59.121Z,7.55
2022-11-10T17:54:04.890Z,18.08
2022-11-10T18:01:17.958Z,13.60
2022-11-10T18:08:19.884Z,18.42
2022-11-10T18:15:21.797Z,22.20
2022-11-10T18:22:23.989Z,19.60
2022-11-10T18:29:25.798Z,30.48
2022-11-10T18:36:28.240Z,17.15
2022-11-10T18:43:30.726Z,12.18
2022-11-10T18:50:32.931Z,11.35
2022-11-10T18:57:34.800Z,12.00
2022-11-10T19:04:36.892Z,10.77
2022-11-10T19:11:39.236Z,11.05
2022-11-10T19:18:41.462Z,10.98
2022-11-10T19:25:44.959Z,10.88
2022-11-10T19:32:47.004Z,11.70
2022-11-10T19:39:48.862Z,16.23
2022-11-10T19:46:53.460Z,18.92
2022-11-10T19:53:58.345Z,19.33
2022-11-10T20:01:04.119Z,17.55
2022-11-10T20:08:13.517Z,19.67
2022-11-10T20:15:15.963Z,17.15
2022-11-10T20:22:21.903Z,17.20
2022-11-10T20:29:24.432Z,17.05
2022-11-10T20:36:28.935Z,18.83
2022-11-10T20:43:32.777Z,13.50
2022-11-10T20:50:34.914Z,14.85
2022-11-10T20:57:36.737Z,22.73
2022-11-10T21:04:43.000Z,20.83
2022-11-10T21:12:04.442Z,21.67
2022-11-10T21:19:06.661Z,25.05
2022-11-10T21:26:08.752Z,21.85
2022-11-10T21:33:10.942Z,21.25
2022-11-10T21:40:13.129Z,21.65
2022-11-10T21:47:15.691Z,21.80
2022-11-10T21:54:17.477Z,22.85
2022-11-10T22:01:19.765Z,25.50
2022-11-10T22:08:22.086Z,23.35
2022-11-10T22:15:42.387Z,19.90
2022-11-10T22:22:44.547Z,19.30
2022-11-10T22:29:46.429Z,16.95
2022-11-10T22:36:52.038Z,14.77
2022-11-10T22:44:07.035Z,17.63
2022-11-10T22:51:11.359Z,18.88
2022-11-10T22:58:14.957Z,14.65
2022-11-10T23:05:17.055Z,13.65
2022-11-10T23:12:20.419Z,14.38
2022-11-10T23:19:22.398Z,13.98
2022-11-10T23:26:26.357Z,14.13
2022-11-10T23:33:32.788Z,12.35
2022-11-10T23:40:36.249Z,11.90
2022-11-10T23:47:38.001Z,12.85
2022-11-10T23:54:40.008Z,13.30
